sensor_id;sensor_type;location;lat;lon;timestamp;pressure;altitude;pressure_sealevel;temperature;humidity
72959;BME280;60008;50.826;6.896;2023-02-26T00:02:12;101019.56;;;0.42;100.00
72959;BME280;60008;50.826;6.896;2023-02-26T00:04:57;101015.94;;;0.45;100.00
72959;BME280;60008;50.826;6.896;2023-02-26T00:07:42;101026.81;;;0.37;100.00
72959;BME280;60008;50.826;6.896;2023-02-26T00:10:27;101039.84;;;0.37;100.00
72959;BME280;60008;50.826;6.896;2023-02-26T00:13:12;101027.91;;;0.33;100.00
72959;BME280;60008;50.826;6.896;2023-02-26T00:15:59;101036.84;;;0.29;100.00
72959;BME280;60008;50.826;6.896;2023-02-26T00:18:45;101046.66;;;0.40;100.00
72959;BME280;60008;50.826;6.896;2023-02-26T00:21:31;101051.25;;;0.50;100.00
72959;BME280;60008;50.826;6.896;2023-02-26T00:24:16;101059.34;;;0.46;100.00
72959;BME280;60008;50.826;6.896;2023-02-26T00:27:01;101057.59;;;0.31;100.00
72959;BME280;60008;50.826;6.896;2023-02-26T00:29:46;101060.94;;;0.48;100.00
72959;BME280;60008;50.826;6.896;2023-02-26T00:32:33;101064.81;;;0.41;100.00
72959;BME280;60008;50.826;6.896;2023-02-26T00:35:18;101063.94;;;0.56;100.00
72959;BME280;60008;50.826;6.896;2023-02-26T00:38:10;101071.59;;;0.59;100.00
72959;BME280;60008;50.826;6.896;2023-02-26T00:40:56;101070.75;;;0.59;100.00
72959;BME280;60008;50.826;6.896;2023-02-26T00:43:41;101080.38;;;0.73;100.00
72959;BME280;60008;50.826;6.896;2023-02-26T00:46:43;101082.22;;;0.71;100.00
72959;BME280;60008;50.826;6.896;2023-02-26T00:49:55;101086.31;;;0.75;100.00
72959;BME280;60008;50.826;6.896;2023-02-26T00:55:45;101089.47;;;0.66;100.00
72959;BME280;60008;50.826;6.896;2023-02-26T00:58:30;101095.72;;;0.77;100.00
72959;BME280;60008;50.826;6.896;2023-02-26T01:01:15;101091.44;;;0.62;100.00
72959;BME280;60008;50.826;6.896;2023-02-26T01:04:00;101096.59;;;0.78;100.00
72959;BME280;60008;50.826;6.896;2023-02-26T01:06:49;101096.66;;;0.76;100.00
72959;BME280;60008;50.826;6.896;2023-02-26T01:09:36;101101.88;;;0.76;100.00
72959;BME280;60008;50.826;6.896;2023-02-26T01:12:22;101106.78;;;0.67;100.00
72959;BME280;60008;50.826;6.896;2023-02-26T01:15:07;101117.06;;;0.70;100.00
72959;BME280;60008;50.826;6.896;2023-02-26T01:18:08;101121.88;;;0.62;100.00
72959;BME280;60008;50.826;6.896;2023-02-26T01:21:00;101124.06;;;0.53;100.00
72959;BME280;60008;50.826;6.896;2023-02-26T01:23:49;101117.34;;;0.49;100.00
72959;BME280;60008;50.826;6.896;2023-02-26T01:26:35;101129.38;;;0.52;100.00
72959;BME280;60008;50.826;6.896;2023-02-26T01:29:20;101134.16;;;0.44;100.00
72959;BME280;60008;50.826;6.896;2023-02-26T01:32:13;101126.19;;;0.47;100.00
72959;BME280;60008;50.826;6.896;2023-02-26T01:35:06;101130.31;;;0.51;100.00
72959;BME280;60008;50.826;6.896;2023-02-26T01:38:29;101135.13;;;0.43;100.00
72959;BME280;60008;50.826;6.896;2023-02-26T01:41:25;101129.28;;;0.53;100.00
72959;BME280;60008;50.826;6.896;2023-02-26T01:44:29;101131.97;;;0.52;100.00
72959;BME280;60008;50.826;6.896;2023-02-26T01:47:32;101125.63;;;0.26;100.00
72959;BME280;60008;50.826;6.896;2023-02-26T01:50:24;101134.63;;;0.21;100.00
72959;BME280;60008;50.826;6.896;2023-02-26T01:53:20;101124.63;;;0.29;100.00
72959;BME280;60008;50.826;6.896;2023-02-26T01:56:17;101123.47;;;0.19;100.00
72959;BME280;60008;50.826;6.896;2023-02-26T01:59:04;101122.28;;;0.24;100.00
72959;BME280;60008;50.826;6.896;2023-02-26T02:01:56;101125.47;;;0.29;100.00
72959;BME280;60008;50.826;6.896;2023-02-26T02:04:43;101116.47;;;0.19;100.00
72959;BME280;60008;50.826;6.896;2023-02-26T02:07:28;101122.09;;;0.12;100.00
72959;BME280;60008;50.826;6.896;2023-02-26T02:10:13;101109.81;;;0.14;100.00
72959;BME280;60008;50.826;6.896;2023-02-26T02:13:09;101103.78;;;-0.03;100.00
72959;BME280;60008;50.826;6.896;2023-02-26T02:22:49;101120.53;;;-0.07;100.00
72959;BME280;60008;50.826;6.896;2023-02-26T02:31:26;101117.84;;;0.11;100.00
72959;BME280;60008;50.826;6.896;2023-02-26T02:37:24;101133.13;;;0.01;100.00
72959;BME280;60008;50.826;6.896;2023-02-26T02:40:18;101137.22;;;-0.11;100.00
72959;BME280;60008;50.826;6.896;2023-02-26T02:43:16;101139.41;;;-0.19;100.00
72959;BME280;60008;50.826;6.896;2023-02-26T02:46:06;101149.25;;;-0.08;100.00
72959;BME280;60008;50.826;6.896;2023-02-26T02:49:17;101151.19;;;-0.12;100.00
72959;BME280;60008;50.826;6.896;2023-02-26T02:52:16;101161.59;;;-0.12;100.00
72959;BME280;60008;50.826;6.896;2023-02-26T02:55:06;101167.41;;;-0.07;100.00
72959;BME280;60008;50.826;6.896;2023-02-26T02:57:59;101167.03;;;-0.16;100.00
72959;BME280;60008;50.826;6.896;2023-02-26T03:00:49;101161.00;;;-0.17;100.00
72959;BME280;60008;50.826;6.896;2023-02-26T03:03:45;101164.22;;;-0.12;100.00
72959;BME280;60008;50.826;6.896;2023-02-26T03:06:34;101156.56;;;-0.15;100.00
72959;BME280;60008;50.826;6.896;2023-02-26T03:09:19;101167.56;;;-0.25;100.00
72959;BME280;60008;50.826;6.896;2023-02-26T03:12:04;101171.06;;;-0.26;100.00
72959;BME280;60008;50.826;6.896;2023-02-26T03:14:50;101175.78;;;-0.17;100.00
72959;BME280;60008;50.826;6.896;2023-02-26T03:17:56;101183.41;;;-0.30;100.00
72959;BME280;60008;50.826;6.896;2023-02-26T03:21:03;101188.41;;;-0.42;100.00
72959;BME280;60008;50.826;6.896;2023-02-26T03:24:07;101187.25;;;-0.37;100.00
72959;BME280;60008;50.826;6.896;2023-02-26T03:33:09;101192.88;;;-0.44;100.00
72959;BME280;60008;50.826;6.896;2023-02-26T03:36:11;101197.47;;;-0.49;100.00
72959;BME280;60008;50.826;6.896;2023-02-26T03:39:03;101196.22;;;-0.42;100.00
72959;BME280;60008;50.826;6.896;2023-02-26T03:44:52;101204.16;;;-0.61;100.00
72959;BME280;60008;50.826;6.896;2023-02-26T03:47:41;101213.00;;;-0.65;100.00
72959;BME280;60008;50.826;6.896;2023-02-26T03:50:46;101216.16;;;-0.58;100.00
72959;BME280;60008;50.826;6.896;2023-02-26T03:53:37;101219.75;;;-0.61;100.00
72959;BME280;60008;50.826;6.896;2023-02-26T03:56:28;101227.03;;;-0.50;100.00
72959;BME280;60008;50.826;6.896;2023-02-26T03:59:16;101227.88;;;-0.50;100.00
72959;BME280;60008;50.826;6.896;2023-02-26T04:02:04;101229.78;;;-0.53;100.00
72959;BME280;60008;50.826;6.896;2023-02-26T04:04:56;101238.72;;;-0.59;100.00
72959;BME280;60008;50.826;6.896;2023-02-26T04:07:44;101246.69;;;-0.62;100.00
72959;BME280;60008;50.826;6.896;2023-02-26T04:10:54;101241.03;;;-0.70;100.00
72959;BME280;60008;50.826;6.896;2023-02-26T04:13:40;101239.38;;;-0.71;100.00
72959;BME280;60008;50.826;6.896;2023-02-26T04:16:25;101244.63;;;-0.73;100.00
72959;BME280;60008;50.826;6.896;2023-02-26T04:19:11;101246.03;;;-0.66;100.00
72959;BME280;60008;50.826;6.896;2023-02-26T04:21:56;101252.03;;;-0.65;100.00
72959;BME280;60008;50.826;6.896;2023-02-26T04:24:41;101258.34;;;-0.69;100.00
72959;BME280;60008;50.826;6.896;2023-02-26T04:27:26;101251.00;;;-0.61;100.00
72959;BME280;60008;50.826;6.896;2023-02-26T04:30:11;101246.38;;;-0.73;100.00
72959;BME280;60008;50.826;6.896;2023-02-26T04:32:56;101248.47;;;-0.63;100.00
72959;BME280;60008;50.826;6.896;2023-02-26T04:35:41;101249.44;;;-0.65;100.00
72959;BME280;60008;50.826;6.896;2023-02-26T04:38:27;101245.09;;;-0.65;100.00
72959;BME280;60008;50.826;6.896;2023-02-26T04:41:12;101258.03;;;-0.63;100.00
72959;BME280;60008;50.826;6.896;2023-02-26T04:43:57;101257.34;;;-0.67;100.00
72959;BME280;60008;50.826;6.896;2023-02-26T04:46:42;101267.72;;;-0.84;100.00
72959;BME280;60008;50.826;6.896;2023-02-26T04:49:27;101264.09;;;-0.80;100.00
72959;BME280;60008;50.826;6.896;2023-02-26T04:52:13;101274.34;;;-0.77;100.00
72959;BME280;60008;50.826;6.896;2023-02-26T04:54:58;101283.16;;;-0.79;100.00
72959;BME280;60008;50.826;6.896;2023-02-26T04:57:43;101281.59;;;-0.83;100.00
72959;BME280;60008;50.826;6.896;2023-02-26T05:00:28;101289.63;;;-0.88;100.00
72959;BME280;60008;50.826;6.896;2023-02-26T05:03:13;101296.50;;;-0.87;100.00
72959;BME280;60008;50.826;6.896;2023-02-26T05:05:58;101296.03;;;-0.95;100.00
72959;BME280;60008;50.826;6.896;2023-02-26T05:08:43;101305.13;;;-1.03;100.00
72959;BME280;60008;50.826;6.896;2023-02-26T05:11:28;101306.09;;;-1.06;100.00
72959;BME280;60008;50.826;6.896;2023-02-26T05:14:14;101311.66;;;-1.13;100.00
72959;BME280;60008;50.826;6.896;2023-02-26T05:16:59;101317.16;;;-1.20;100.00
72959;BME280;60008;50.826;6.896;2023-02-26T05:19:44;101317.88;;;-1.16;100.00
72959;BME280;60008;50.826;6.896;2023-02-26T05:22:29;101323.28;;;-1.21;100.00
72959;BME280;60008;50.826;6.896;2023-02-26T05:25:14;101327.34;;;-1.15;100.00
72959;BME280;60008;50.826;6.896;2023-02-26T05:27:59;101321.78;;;-1.07;100.00
72959;BME280;60008;50.826;6.896;2023-02-26T05:30:44;101329.50;;;-1.06;100.00
72959;BME280;60008;50.826;6.896;2023-02-26T05:33:29;101328.78;;;-0.91;100.00
72959;BME280;60008;50.826;6.896;2023-02-26T05:36:14;101328.84;;;-0.92;100.00
72959;BME280;60008;50.826;6.896;2023-02-26T05:38:59;101334.00;;;-0.91;100.00
72959;BME280;60008;50.826;6.896;2023-02-26T05:41:44;101337.34;;;-0.89;100.00
72959;BME280;60008;50.826;6.896;2023-02-26T05:44:30;101354.19;;;-0.96;100.00
72959;BME280;60008;50.826;6.896;2023-02-26T05:47:15;101349.00;;;-0.79;100.00
72959;BME280;60008;50.826;6.896;2023-02-26T05:50:00;101359.34;;;-0.77;100.00
72959;BME280;60008;50.826;6.896;2023-02-26T05:52:45;101354.06;;;-0.76;100.00
72959;BME280;60008;50.826;6.896;2023-02-26T05:55:30;101353.88;;;-0.71;100.00
72959;BME280;60008;50.826;6.896;2023-02-26T05:58:15;101356.81;;;-0.79;100.00
72959;BME280;60008;50.826;6.896;2023-02-26T06:01:01;101362.84;;;-0.95;100.00
72959;BME280;60008;50.826;6.896;2023-02-26T06:03:46;101365.59;;;-0.98;100.00
72959;BME280;60008;50.826;6.896;2023-02-26T06:06:31;101362.84;;;-0.95;100.00
72959;BME280;60008;50.826;6.896;2023-02-26T06:09:16;101378.44;;;-0.95;100.00
72959;BME280;60008;50.826;6.896;2023-02-26T06:12:01;101373.66;;;-1.04;100.00
72959;BME280;60008;50.826;6.896;2023-02-26T06:14:46;101366.69;;;-0.85;100.00
72959;BME280;60008;50.826;6.896;2023-02-26T06:17:32;101378.47;;;-0.78;100.00
72959;BME280;60008;50.826;6.896;2023-02-26T06:20:17;101383.13;;;-0.85;100.00
72959;BME280;60008;50.826;6.896;2023-02-26T06:23:02;101393.81;;;-0.91;100.00
72959;BME280;60008;50.826;6.896;2023-02-26T06:25:49;101393.88;;;-0.92;100.00
72959;BME280;60008;50.826;6.896;2023-02-26T06:28:35;101388.00;;;-0.96;100.00
72959;BME280;60008;50.826;6.896;2023-02-26T06:31:20;101383.19;;;-0.86;100.00
72959;BME280;60008;50.826;6.896;2023-02-26T06:34:05;101389.34;;;-0.87;100.00
72959;BME280;60008;50.826;6.896;2023-02-26T06:36:50;101388.28;;;-1.02;100.00
72959;BME280;60008;50.826;6.896;2023-02-26T06:39:35;101399.78;;;-0.89;100.00
72959;BME280;60008;50.826;6.896;2023-02-26T06:42:20;101412.44;;;-0.81;100.00
72959;BME280;60008;50.826;6.896;2023-02-26T06:45:06;101415.19;;;-0.84;100.00
72959;BME280;60008;50.826;6.896;2023-02-26T06:47:51;101426.38;;;-0.82;100.00
72959;BME280;60008;50.826;6.896;2023-02-26T06:50:36;101434.25;;;-0.84;100.00
72959;BME280;60008;50.826;6.896;2023-02-26T06:53:22;101437.56;;;-0.80;100.00
72959;BME280;60008;50.826;6.896;2023-02-26T06:56:07;101452.09;;;-0.95;100.00
72959;BME280;60008;50.826;6.896;2023-02-26T06:58:52;101458.22;;;-0.96;100.00
72959;BME280;60008;50.826;6.896;2023-02-26T07:01:37;101466.44;;;-1.05;100.00
72959;BME280;60008;50.826;6.896;2023-02-26T07:04:23;101473.81;;;-1.14;100.00
72959;BME280;60008;50.826;6.896;2023-02-26T07:07:08;101471.66;;;-1.05;100.00
72959;BME280;60008;50.826;6.896;2023-02-26T07:09:53;101480.03;;;-0.98;100.00
72959;BME280;60008;50.826;6.896;2023-02-26T07:12:39;101496.53;;;-0.99;100.00
72959;BME280;60008;50.826;6.896;2023-02-26T07:15:24;101501.03;;;-1.03;100.00
72959;BME280;60008;50.826;6.896;2023-02-26T07:18:09;101499.00;;;-0.78;100.00
72959;BME280;60008;50.826;6.896;2023-02-26T07:20:54;101501.75;;;-0.81;100.00
72959;BME280;60008;50.826;6.896;2023-02-26T07:23:39;101513.41;;;-0.71;100.00
72959;BME280;60008;50.826;6.896;2023-02-26T07:26:24;101500.41;;;-0.71;100.00
72959;BME280;60008;50.826;6.896;2023-02-26T07:29:10;101515.34;;;-0.55;100.00
72959;BME280;60008;50.826;6.896;2023-02-26T07:31:55;101516.47;;;-0.61;100.00
72959;BME280;60008;50.826;6.896;2023-02-26T07:34:40;101527.00;;;-0.45;100.00
72959;BME280;60008;50.826;6.896;2023-02-26T07:37:25;101535.16;;;-0.53;100.00
72959;BME280;60008;50.826;6.896;2023-02-26T07:40:11;101548.47;;;-0.59;100.00
72959;BME280;60008;50.826;6.896;2023-02-26T07:42:56;101537.63;;;-0.69;100.00
72959;BME280;60008;50.826;6.896;2023-02-26T07:45:41;101546.44;;;-0.71;100.00
72959;BME280;60008;50.826;6.896;2023-02-26T07:48:27;101553.88;;;-0.64;100.00
72959;BME280;60008;50.826;6.896;2023-02-26T07:51:12;101554.28;;;-0.54;100.00
72959;BME280;60008;50.826;6.896;2023-02-26T07:53:57;101561.41;;;-0.39;100.00
72959;BME280;60008;50.826;6.896;2023-02-26T07:56:42;101566.06;;;-0.45;100.00
72959;BME280;60008;50.826;6.896;2023-02-26T07:59:27;101570.91;;;-0.38;100.00
72959;BME280;60008;50.826;6.896;2023-02-26T08:02:14;101566.66;;;-0.22;100.00
72959;BME280;60008;50.826;6.896;2023-02-26T08:04:58;101576.09;;;-0.38;100.00
72959;BME280;60008;50.826;6.896;2023-02-26T08:07:44;101576.06;;;-0.36;100.00
72959;BME280;60008;50.826;6.896;2023-02-26T08:10:29;101589.34;;;-0.42;100.00
72959;BME280;60008;50.826;6.896;2023-02-26T08:13:14;101583.44;;;-0.27;100.00
72959;BME280;60008;50.826;6.896;2023-02-26T08:15:59;101586.38;;;-0.35;100.00
72959;BME280;60008;50.826;6.896;2023-02-26T08:18:44;101580.50;;;-0.38;100.00
72959;BME280;60008;50.826;6.896;2023-02-26T08:21:29;101580.53;;;-0.21;100.00
72959;BME280;60008;50.826;6.896;2023-02-26T08:24:14;101576.38;;;-0.07;100.00
72959;BME280;60008;50.826;6.896;2023-02-26T08:27:00;101583.72;;;-0.15;100.00
72959;BME280;60008;50.826;6.896;2023-02-26T08:29:44;101581.88;;;-0.13;100.00
72959;BME280;60008;50.826;6.896;2023-02-26T08:32:29;101594.00;;;-0.30;100.00
72959;BME280;60008;50.826;6.896;2023-02-26T08:35:15;101595.88;;;-0.15;100.00
72959;BME280;60008;50.826;6.896;2023-02-26T08:38:00;101600.84;;;-0.28;100.00
72959;BME280;60008;50.826;6.896;2023-02-26T08:40:48;101605.72;;;-0.22;100.00
72959;BME280;60008;50.826;6.896;2023-02-26T08:43:33;101605.81;;;-0.23;100.00
72959;BME280;60008;50.826;6.896;2023-02-26T08:46:18;101604.69;;;-0.18;100.00
72959;BME280;60008;50.826;6.896;2023-02-26T08:49:04;101610.97;;;-0.03;100.00
72959;BME280;60008;50.826;6.896;2023-02-26T08:51:48;101604.38;;;0.07;100.00
72959;BME280;60008;50.826;6.896;2023-02-26T08:54:34;101603.75;;;0.02;100.00
72959;BME280;60008;50.826;6.896;2023-02-26T08:57:18;101604.50;;;0.23;100.00
72959;BME280;60008;50.826;6.896;2023-02-26T09:00:05;101613.69;;;0.13;100.00
72959;BME280;60008;50.826;6.896;2023-02-26T09:02:54;101613.69;;;0.13;100.00
72959;BME280;60008;50.826;6.896;2023-02-26T09:05:38;101620.88;;;0.43;100.00
72959;BME280;60008;50.826;6.896;2023-02-26T09:08:24;101621.88;;;0.58;100.00
72959;BME280;60008;50.826;6.896;2023-02-26T09:11:09;101617.72;;;0.37;100.00
72959;BME280;60008;50.826;6.896;2023-02-26T09:13:55;101628.03;;;0.74;100.00
72959;BME280;60008;50.826;6.896;2023-02-26T09:16:42;101621.69;;;0.44;100.00
72959;BME280;60008;50.826;6.896;2023-02-26T09:19:27;101625.88;;;0.82;100.00
72959;BME280;60008;50.826;6.896;2023-02-26T09:22:12;101626.47;;;1.04;100.00
72959;BME280;60008;50.826;6.896;2023-02-26T09:24:58;101631.25;;;1.13;100.00
72959;BME280;60008;50.826;6.896;2023-02-26T09:27:42;101636.06;;;1.04;100.00
72959;BME280;60008;50.826;6.896;2023-02-26T09:30:28;101640.28;;;1.06;100.00
72959;BME280;60008;50.826;6.896;2023-02-26T09:33:12;101633.31;;;1.07;100.00
72959;BME280;60008;50.826;6.896;2023-02-26T09:35:58;101638.81;;;1.18;100.00
72959;BME280;60008;50.826;6.896;2023-02-26T09:38:43;101647.75;;;0.97;100.00
72959;BME280;60008;50.826;6.896;2023-02-26T09:41:33;101649.50;;;1.13;100.00
72959;BME280;60008;50.826;6.896;2023-02-26T09:44:26;101658.41;;;1.27;100.00
72959;BME280;60008;50.826;6.896;2023-02-26T09:47:23;101654.28;;;3.38;100.00
72959;BME280;60008;50.826;6.896;2023-02-26T09:50:17;101662.59;;;2.87;100.00
72959;BME280;60008;50.826;6.896;2023-02-26T09:53:21;101663.09;;;3.66;95.75
72959;BME280;60008;50.826;6.896;2023-02-26T09:56:14;101664.97;;;3.64;95.27
72959;BME280;60008;50.826;6.896;2023-02-26T09:59:00;101655.91;;;4.77;91.02
72959;BME280;60008;50.826;6.896;2023-02-26T10:01:54;101669.81;;;4.39;80.99
72959;BME280;60008;50.826;6.896;2023-02-26T10:08:02;101665.22;;;3.59;84.77
72959;BME280;60008;50.826;6.896;2023-02-26T10:11:24;101676.44;;;2.12;91.77
72959;BME280;60008;50.826;6.896;2023-02-26T10:14:17;101676.25;;;2.62;86.69
72959;BME280;60008;50.826;6.896;2023-02-26T10:17:29;101682.00;;;3.13;85.88
72959;BME280;60008;50.826;6.896;2023-02-26T10:20:23;101688.41;;;2.16;87.89
72959;BME280;60008;50.826;6.896;2023-02-26T10:26:47;101692.69;;;2.64;81.57
72959;BME280;60008;50.826;6.896;2023-02-26T10:29:50;101684.13;;;2.47;82.60
72959;BME280;60008;50.826;6.896;2023-02-26T10:32:53;101687.31;;;2.05;81.61
72959;BME280;60008;50.826;6.896;2023-02-26T10:35:46;101689.81;;;1.91;81.36
72959;BME280;60008;50.826;6.896;2023-02-26T10:38:36;101688.09;;;2.38;79.64
72959;BME280;60008;50.826;6.896;2023-02-26T10:41:24;101689.91;;;2.20;79.46
72959;BME280;60008;50.826;6.896;2023-02-26T10:44:16;101689.16;;;2.18;80.42
72959;BME280;60008;50.826;6.896;2023-02-26T10:47:23;101701.50;;;2.16;82.32
72959;BME280;60008;50.826;6.896;2023-02-26T10:50:19;101699.03;;;1.98;82.54
72959;BME280;60008;50.826;6.896;2023-02-26T10:53:04;101691.53;;;2.23;83.72
72959;BME280;60008;50.826;6.896;2023-02-26T10:56:04;101703.69;;;2.08;81.21
72959;BME280;60008;50.826;6.896;2023-02-26T10:58:52;101700.97;;;1.94;82.43
72959;BME280;60008;50.826;6.896;2023-02-26T11:01:39;101716.38;;;1.99;82.91
72959;BME280;60008;50.826;6.896;2023-02-26T11:04:25;101724.19;;;2.31;81.58
72959;BME280;60008;50.826;6.896;2023-02-26T11:07:10;101721.72;;;1.97;82.18
72959;BME280;60008;50.826;6.896;2023-02-26T11:09:59;101726.47;;;2.06;83.36
72959;BME280;60008;50.826;6.896;2023-02-26T11:12:44;101723.13;;;1.87;83.49
72959;BME280;60008;50.826;6.896;2023-02-26T11:15:30;101730.41;;;1.98;82.02
72959;BME280;60008;50.826;6.896;2023-02-26T11:18:20;101733.50;;;2.04;82.39
72959;BME280;60008;50.826;6.896;2023-02-26T11:21:08;101726.25;;;1.94;79.81
72959;BME280;60008;50.826;6.896;2023-02-26T11:24:07;101715.91;;;2.23;79.09
72959;BME280;60008;50.826;6.896;2023-02-26T11:26:54;101714.06;;;2.41;79.78
72959;BME280;60008;50.826;6.896;2023-02-26T11:29:42;101718.75;;;2.81;73.45
72959;BME280;60008;50.826;6.896;2023-02-26T11:32:32;101726.34;;;3.02;77.77
72959;BME280;60008;50.826;6.896;2023-02-26T11:35:19;101733.28;;;3.46;75.25
72959;BME280;60008;50.826;6.896;2023-02-26T11:38:17;101723.00;;;4.14;70.44
72959;BME280;60008;50.826;6.896;2023-02-26T11:41:04;101734.31;;;3.14;71.45
72959;BME280;60008;50.826;6.896;2023-02-26T11:44:17;101732.53;;;2.85;72.78
72959;BME280;60008;50.826;6.896;2023-02-26T11:47:08;101736.81;;;3.45;71.26
72959;BME280;60008;50.826;6.896;2023-02-26T11:50:00;101728.97;;;4.16;67.98
72959;BME280;60008;50.826;6.896;2023-02-26T11:52:56;101729.19;;;2.97;69.19
72959;BME280;60008;50.826;6.896;2023-02-26T11:55:52;101737.00;;;2.67;71.38
72959;BME280;60008;50.826;6.896;2023-02-26T11:58:39;101726.28;;;2.72;71.40
72959;BME280;60008;50.826;6.896;2023-02-26T12:01:27;101731.69;;;3.14;68.86
72959;BME280;60008;50.826;6.896;2023-02-26T12:04:18;101707.84;;;4.46;63.25
72959;BME280;60008;50.826;6.896;2023-02-26T12:07:03;101720.88;;;3.64;65.53
72959;BME280;60008;50.826;6.896;2023-02-26T12:09:49;101718.59;;;2.84;66.99
72959;BME280;60008;50.826;6.896;2023-02-26T12:16:38;101720.13;;;3.32;67.88
72959;BME280;60008;50.826;6.896;2023-02-26T12:25:32;101712.06;;;3.21;65.00
72959;BME280;60008;50.826;6.896;2023-02-26T12:37:44;101712.25;;;3.76;64.19
72959;BME280;60008;50.826;6.896;2023-02-26T12:43:46;101718.22;;;3.50;65.50
72959;BME280;60008;50.826;6.896;2023-02-26T12:46:50;101693.53;;;3.82;65.04
72959;BME280;60008;50.826;6.896;2023-02-26T12:56:45;101701.69;;;3.78;64.82
72959;BME280;60008;50.826;6.896;2023-02-26T12:59:51;101702.06;;;3.72;63.60
72959;BME280;60008;50.826;6.896;2023-02-26T13:03:08;101715.88;;;3.16;64.40
72959;BME280;60008;50.826;6.896;2023-02-26T13:09:31;101706.94;;;3.20;66.19
72959;BME280;60008;50.826;6.896;2023-02-26T13:12:35;101710.41;;;3.05;67.28
72959;BME280;60008;50.826;6.896;2023-02-26T13:15:39;101712.28;;;3.03;68.21
72959;BME280;60008;50.826;6.896;2023-02-26T13:18:31;101711.19;;;2.77;66.34
72959;BME280;60008;50.826;6.896;2023-02-26T13:21:26;101712.44;;;3.15;65.44
72959;BME280;60008;50.826;6.896;2023-02-26T13:24:23;101720.16;;;3.46;64.61
72959;BME280;60008;50.826;6.896;2023-02-26T13:27:13;101720.06;;;3.48;61.80
72959;BME280;60008;50.826;6.896;2023-02-26T13:30:24;101716.44;;;3.65;61.52
72959;BME280;60008;50.826;6.896;2023-02-26T13:33:22;101724.97;;;3.24;61.11
72959;BME280;60008;50.826;6.896;2023-02-26T13:36:09;101722.44;;;3.52;61.13
72959;BME280;60008;50.826;6.896;2023-02-26T13:39:06;101727.75;;;3.51;61.54
72959;BME280;60008;50.826;6.896;2023-02-26T13:42:00;101718.69;;;3.56;62.15
72959;BME280;60008;50.826;6.896;2023-02-26T13:45:17;101717.22;;;3.67;61.16
72959;BME280;60008;50.826;6.896;2023-02-26T13:48:35;101717.78;;;3.86;61.59
72959;BME280;60008;50.826;6.896;2023-02-26T13:51:38;101711.41;;;4.04;64.75
72959;BME280;60008;50.826;6.896;2023-02-26T13:54:32;101713.84;;;3.93;62.44
72959;BME280;60008;50.826;6.896;2023-02-26T13:57:25;101715.69;;;3.63;62.25
72959;BME280;60008;50.826;6.896;2023-02-26T14:00:33;101711.50;;;3.60;60.38
72959;BME280;60008;50.826;6.896;2023-02-26T14:18:00;101721.16;;;3.30;62.16
72959;BME280;60008;50.826;6.896;2023-02-26T14:20:45;101724.28;;;3.36;62.24
72959;BME280;60008;50.826;6.896;2023-02-26T14:23:35;101721.66;;;3.36;61.90
72959;BME280;60008;50.826;6.896;2023-02-26T14:26:21;101717.09;;;3.68;63.31
72959;BME280;60008;50.826;6.896;2023-02-26T14:29:20;101720.66;;;3.53;60.77
72959;BME280;60008;50.826;6.896;2023-02-26T14:34:55;101717.47;;;3.76;60.30
72959;BME280;60008;50.826;6.896;2023-02-26T14:37:55;101725.53;;;3.87;60.92
72959;BME280;60008;50.826;6.896;2023-02-26T14:40:46;101726.84;;;3.66;60.20
72959;BME280;60008;50.826;6.896;2023-02-26T14:43:40;101723.09;;;3.56;59.92
72959;BME280;60008;50.826;6.896;2023-02-26T14:46:26;101719.94;;;3.79;63.81
72959;BME280;60008;50.826;6.896;2023-02-26T14:49:17;101725.59;;;3.43;61.47
72959;BME280;60008;50.826;6.896;2023-02-26T14:52:29;101725.38;;;3.32;60.92
72959;BME280;60008;50.826;6.896;2023-02-26T14:55:44;101728.81;;;3.77;61.88
72959;BME280;60008;50.826;6.896;2023-02-26T15:05:16;101729.19;;;3.71;60.22
72959;BME280;60008;50.826;6.896;2023-02-26T15:08:24;101732.19;;;3.79;61.15
72959;BME280;60008;50.826;6.896;2023-02-26T15:11:30;101734.47;;;3.41;61.10
72959;BME280;60008;50.826;6.896;2023-02-26T15:17:43;101724.16;;;3.96;63.12
72959;BME280;60008;50.826;6.896;2023-02-26T15:23:46;101717.84;;;3.84;60.21
72959;BME280;60008;50.826;6.896;2023-02-26T15:26:34;101728.25;;;4.00;61.28
72959;BME280;60008;50.826;6.896;2023-02-26T15:29:27;101739.28;;;3.63;61.20
72959;BME280;60008;50.826;6.896;2023-02-26T15:32:27;101740.25;;;3.32;61.85
72959;BME280;60008;50.826;6.896;2023-02-26T15:35:20;101740.25;;;3.32;61.90
72959;BME280;60008;50.826;6.896;2023-02-26T15:38:05;101744.84;;;3.28;62.50
72959;BME280;60008;50.826;6.896;2023-02-26T15:40:52;101746.72;;;3.40;62.11
72959;BME280;60008;50.826;6.896;2023-02-26T15:43:40;101750.69;;;3.47;60.22
72959;BME280;60008;50.826;6.896;2023-02-26T15:46:31;101753.22;;;3.49;60.72
72959;BME280;60008;50.826;6.896;2023-02-26T15:49:32;101756.81;;;3.32;58.61
72959;BME280;60008;50.826;6.896;2023-02-26T15:52:20;101757.50;;;3.36;58.96
72959;BME280;60008;50.826;6.896;2023-02-26T15:55:07;101759.25;;;3.35;59.07
72959;BME280;60008;50.826;6.896;2023-02-26T15:57:58;101764.44;;;3.21;59.07
72959;BME280;60008;50.826;6.896;2023-02-26T16:00:43;101766.88;;;3.24;59.98
72959;BME280;60008;50.826;6.896;2023-02-26T16:03:31;101768.41;;;3.28;61.96
72959;BME280;60008;50.826;6.896;2023-02-26T16:06:22;101775.59;;;3.25;61.28
72959;BME280;60008;50.826;6.896;2023-02-26T16:09:25;101774.75;;;3.24;62.05
72959;BME280;60008;50.826;6.896;2023-02-26T16:12:16;101780.09;;;3.23;63.38
72959;BME280;60008;50.826;6.896;2023-02-26T16:15:11;101782.03;;;3.19;62.95
72959;BME280;60008;50.826;6.896;2023-02-26T16:17:57;101780.44;;;3.17;64.25
72959;BME280;60008;50.826;6.896;2023-02-26T16:20:47;101782.31;;;3.15;63.55
72959;BME280;60008;50.826;6.896;2023-02-26T16:23:40;101792.63;;;3.02;61.84
72959;BME280;60008;50.826;6.896;2023-02-26T16:26:33;101787.75;;;2.96;60.70
72959;BME280;60008;50.826;6.896;2023-02-26T16:29:23;101795.84;;;2.91;59.59